Time;durP1;ratioP1;P1;durP2;ratioP2;P2;SDS_P1;SDS_P2;PMS_P1;PMS_P2;Temp;Humidity;BMP_temperature;BMP_pressure;BME280_temperature;BME280_humidity;BME280_pressure;Samples;Min_cycle;Max_cycle;Signal;HPM_P1;HPM_P2
2022/03/18 00:01:02;;;;;;;24.42;16.70;;;102.60;2227.20;;;;;;5046504;28;20401;-76
2022/03/18 00:03:27;;;;;;;33.22;18.20;;;102.50;2227.20;;;;;;5053474;28;20456;-79
2022/03/18 00:05:53;;;;;;;29.40;16.90;;;102.50;2227.20;;;;;;5044047;28;20029;-78
2022/03/18 00:08:19;;;;;;;30.08;16.67;;;102.50;2227.20;;;;;;5034009;28;20021;-78
2022/03/18 00:10:45;;;;;;;26.42;17.75;;;102.50;2227.20;;;;;;5033676;28;20025;-78
2022/03/18 00:13:11;;;;;;;26.30;17.60;;;102.50;2227.20;;;;;;5032551;28;20025;-78
2022/03/18 00:15:37;;;;;;;27.42;18.08;;;102.40;2227.20;;;;;;5033452;28;20029;-78
2022/03/18 00:18:02;;;;;;;27.35;16.92;;;102.40;2227.20;;;;;;5039778;28;20477;-78
2022/03/18 00:20:28;;;;;;;24.00;16.13;;;102.40;2227.20;;;;;;5033572;28;20029;-78
2022/03/18 00:22:54;;;;;;;26.80;17.58;;;102.40;2227.20;;;;;;5035217;28;20041;-79
2022/03/18 00:25:20;;;;;;;33.22;18.05;;;102.40;2227.20;;;;;;5044828;28;20032;-79
2022/03/18 00:27:46;;;;;;;25.92;17.52;;;102.40;2227.20;;;;;;5050853;28;20036;-78
2022/03/18 00:30:14;;;;;;;27.77;17.58;;;77.70;2227.20;;;;;;5052334;28;20021;-79
2022/03/18 00:32:45;;;;;;;25.40;17.50;;;77.70;2227.20;;;;;;5042487;28;20068;-79
2022/03/18 00:35:11;;;;;;;25.13;16.70;;;77.70;2227.20;;;;;;5052165;28;20029;-79
2022/03/18 00:37:38;;;;;;;27.33;18.25;;;77.70;2227.20;;;;;;5052871;28;20409;-77
2022/03/18 00:40:06;;;;;;;27.42;16.85;;;77.70;2227.20;;;;;;5038650;28;20067;-77
2022/03/18 00:42:32;;;;;;;23.52;15.30;;;77.60;2227.20;;;;;;5040706;28;20037;-78
2022/03/18 00:45:01;;;;;;;26.92;16.23;;;77.60;2227.20;;;;;;5041634;28;20116;-77
2022/03/18 00:52:56;;;;;;;22.92;14.82;;;77.50;2227.20;;;;;;5042819;28;20508;-77
2022/03/18 00:55:21;;;;;;;24.15;15.15;;;77.50;2227.20;;;;;;5037817;28;20057;-79
2022/03/18 00:57:47;;;;;;;24.10;15.02;;;77.50;2227.20;;;;;;5032508;28;20056;-79
2022/03/18 01:00:13;;;;;;;31.02;16.88;;;77.50;2227.20;;;;;;5032780;28;20794;-77
2022/03/18 01:02:39;;;;;;;29.08;16.20;;;77.40;2227.20;;;;;;5039175;28;20056;-78
2022/03/18 01:05:06;;;;;;;27.77;16.10;;;77.40;2227.20;;;;;;5051557;28;20021;-78
2022/03/18 01:07:31;;;;;;;27.95;17.17;;;77.40;2227.20;;;;;;5051025;28;20120;-78
2022/03/18 01:09:58;;;;;;;25.20;14.52;;;77.50;2227.20;;;;;;5050419;28;20053;-77
2022/03/18 01:12:25;;;;;;;24.60;14.45;;;77.40;2227.20;;;;;;5052580;28;20020;-77
2022/03/18 01:14:51;;;;;;;19.77;13.88;;;77.40;2227.20;;;;;;5052384;28;20017;-77
2022/03/18 01:17:17;;;;;;;20.48;13.93;;;77.50;2227.20;;;;;;5052657;28;20048;-77
2022/03/18 01:19:43;;;;;;;18.48;13.05;;;77.50;2227.20;;;;;;5052209;28;20021;-77
2022/03/18 01:22:09;;;;;;;23.13;14.55;;;77.50;2227.20;;;;;;5050983;28;20048;-78
2022/03/18 01:24:36;;;;;;;20.98;13.27;;;77.60;2227.20;;;;;;5050797;28;20041;-77
2022/03/18 01:27:03;;;;;;;19.88;13.05;;;77.60;2227.20;;;;;;5050378;28;20025;-77
2022/03/18 01:29:29;;;;;;;31.35;15.32;;;77.60;2227.20;;;;;;5051815;28;20029;-78
2022/03/18 01:31:54;;;;;;;23.05;12.07;;;77.60;2227.20;;;;;;5050585;28;20048;-78
2022/03/18 01:34:20;;;;;;;21.50;12.38;;;77.70;2227.20;;;;;;5051630;28;20029;-78
2022/03/18 01:36:46;;;;;;;17.73;11.73;;;102.40;2227.20;;;;;;5052166;28;20090;-78
2022/03/18 01:39:12;;;;;;;24.17;13.95;;;77.70;2227.20;;;;;;5050884;28;20500;-77
2022/03/18 01:41:40;;;;;;;20.95;12.30;;;77.70;2227.20;;;;;;5042155;28;20456;-78
2022/03/18 01:44:12;;;;;;;23.83;12.43;;;77.70;2227.20;;;;;;5030225;28;20036;-77
2022/03/18 01:46:38;;;;;;;19.92;13.00;;;102.40;2227.20;;;;;;5030741;28;20029;-78
2022/03/18 01:49:05;;;;;;;21.27;11.73;;;77.70;2227.20;;;;;;5030811;28;20034;-78
2022/03/18 01:51:32;;;;;;;18.48;10.75;;;102.40;2227.20;;;;;;5030629;28;20061;-78
2022/03/18 01:56:43;;;;;;;19.58;12.80;;;102.40;2227.20;;;;;;5031988;28;20040;-77
2022/03/18 01:59:12;;;;;;;17.52;11.05;;;102.50;2227.20;;;;;;5040800;28;20029;-79
2022/03/18 02:01:38;;;;;;;21.83;12.23;;;102.50;2227.20;;;;;;5050610;28;20027;-78
2022/03/18 02:04:04;;;;;;;23.95;14.02;;;102.50;2227.20;;;;;;5049956;28;20029;-78
2022/03/18 02:06:30;;;;;;;17.23;11.73;;;102.50;2227.20;;;;;;5051912;28;20045;-78
2022/03/18 02:08:56;;;;;;;20.05;10.93;;;102.40;2227.20;;;;;;5051496;28;20105;-77
2022/03/18 02:11:23;;;;;;;17.52;12.32;;;102.40;2227.20;;;;;;5051866;28;20869;-78
2022/03/18 02:13:56;;;;;;;17.88;12.23;;;102.40;2227.20;;;;;;5051810;28;20025;-78
2022/03/18 02:16:22;;;;;;;18.00;12.30;;;102.40;2227.20;;;;;;5050168;28;20055;-78
2022/03/18 02:18:47;;;;;;;18.38;11.23;;;102.40;2227.20;;;;;;5050616;28;20060;-79
2022/03/18 02:21:14;;;;;;;22.17;10.93;;;77.70;2227.20;;;;;;5051177;28;20025;-78
2022/03/18 02:23:41;;;;;;;22.60;13.00;;;102.40;2227.20;;;;;;5049374;28;20033;-77
2022/03/18 02:26:07;;;;;;;20.65;13.43;;;102.40;2227.20;;;;;;5050000;28;20039;-77
2022/03/18 02:28:33;;;;;;;23.52;12.50;;;102.40;2227.20;;;;;;5050362;28;20025;-78
2022/03/18 02:30:59;;;;;;;20.42;12.10;;;102.40;2227.20;;;;;;5049680;28;20556;-78
2022/03/18 02:33:25;;;;;;;18.55;11.70;;;102.40;2227.20;;;;;;5049788;28;20052;-78
2022/03/18 02:35:56;;;;;;;19.65;11.32;;;102.40;2227.20;;;;;;5051672;28;20098;-78
2022/03/18 02:38:22;;;;;;;22.38;12.73;;;102.50;2227.20;;;;;;5049903;28;20454;-77
2022/03/18 02:40:47;;;;;;;24.65;13.73;;;102.50;2227.20;;;;;;5050340;28;20116;-77
2022/03/18 02:43:13;;;;;;;19.50;11.50;;;102.50;2227.20;;;;;;5047208;28;20059;-77
2022/03/18 02:45:39;;;;;;;14.68;8.93;;;102.60;2227.20;;;;;;5050218;28;20104;-77
2022/03/18 02:48:06;;;;;;;14.52;9.23;;;102.70;2227.20;;;;;;5051206;28;20021;-77
2022/03/18 02:50:33;;;;;;;14.80;9.80;;;102.80;2227.20;;;;;;5050305;28;20021;-77
2022/03/18 02:52:59;;;;;;;21.33;10.18;;;102.90;2227.20;;;;;;5049594;28;20516;-77
2022/03/18 02:55:26;;;;;;;14.18;8.65;;;102.90;2227.20;;;;;;5051238;28;20029;-77
2022/03/18 02:57:52;;;;;;;13.73;8.32;;;102.90;2227.20;;;;;;5049793;28;20125;-77
2022/03/18 03:00:18;;;;;;;13.63;8.93;;;103.00;2227.20;;;;;;5050992;28;20099;-76
2022/03/18 03:02:43;;;;;;;16.02;9.05;;;103.00;2227.20;;;;;;5051243;28;20777;-77
2022/03/18 03:07:59;;;;;;;14.02;8.27;;;103.10;2227.20;;;;;;5054321;28;20120;-76
2022/03/18 03:10:32;;;;;;;18.13;9.93;;;103.20;2227.20;;;;;;5054624;28;20035;-78
2022/03/18 03:13:05;;;;;;;22.60;10.27;;;103.20;2227.20;;;;;;5048544;28;20029;-79
2022/03/18 03:15:31;;;;;;;18.45;9.55;;;103.20;2227.20;;;;;;5054778;28;20025;-79
2022/03/18 03:17:57;;;;;;;14.25;9.30;;;103.20;2227.20;;;;;;5054083;28;20444;-78
2022/03/18 03:20:22;;;;;;;13.15;8.52;;;103.20;2227.20;;;;;;5054006;28;20066;-78
2022/03/18 03:22:48;;;;;;;14.50;8.63;;;103.30;2227.20;;;;;;5054382;28;20029;-79
2022/03/18 03:25:14;;;;;;;16.23;10.50;;;103.30;2227.20;;;;;;5052477;28;20065;-78
2022/03/18 03:27:40;;;;;;;12.88;8.20;;;103.30;2227.20;;;;;;5052501;28;20028;-78
2022/03/18 03:30:08;;;;;;;13.35;8.57;;;128.00;2252.80;;;;;;5054756;28;20024;-78
2022/03/18 03:32:35;;;;;;;13.07;8.23;;;128.00;2252.80;;;;;;5051963;28;20045;-79
2022/03/18 03:35:01;;;;;;;9.95;7.35;;;128.00;2252.80;;;;;;5054243;28;20021;-79
2022/03/18 03:37:28;;;;;;;16.40;8.73;;;128.00;2252.80;;;;;;5054426;28;20029;-78
2022/03/18 03:39:54;;;;;;;12.15;7.95;;;128.00;2252.80;;;;;;5052945;28;20480;-79
2022/03/18 03:42:20;;;;;;;13.57;7.57;;;128.00;2252.80;;;;;;5052657;28;20029;-79
2022/03/18 03:44:46;;;;;;;15.27;8.20;;;128.00;2252.80;;;;;;5052546;28;20029;-79
2022/03/18 03:47:13;;;;;;;13.27;7.57;;;128.00;2252.80;;;;;;5054354;28;20028;-79
2022/03/18 03:49:39;;;;;;;15.18;7.65;;;103.30;2227.20;;;;;;5053924;28;20052;-78
2022/03/18 03:52:08;;;;;;;11.55;7.18;;;128.00;2252.80;;;;;;5053274;28;20053;-78
2022/03/18 03:54:34;;;;;;;11.55;7.30;;;128.00;2252.80;;;;;;5053838;28;20037;-78
2022/03/18 03:57:00;;;;;;;12.90;6.68;;;128.00;2252.80;;;;;;5053683;28;20104;-77
2022/03/18 03:59:26;;;;;;;13.50;7.25;;;128.00;2252.80;;;;;;5052901;28;20799;-78
2022/03/18 04:01:51;;;;;;;9.52;7.40;;;128.00;2252.80;;;;;;5051546;28;20045;-78
2022/03/18 04:04:17;;;;;;;9.02;5.55;;;128.00;2252.80;;;;;;5053389;28;20405;-78
2022/03/18 04:06:43;;;;;;;13.73;7.15;;;128.00;2252.80;;;;;;5052490;28;20381;-78
2022/03/18 04:09:09;;;;;;;12.90;6.70;;;128.00;2252.80;;;;;;5051143;28;20462;-78
2022/03/18 04:11:35;;;;;;;11.90;6.82;;;128.00;2252.80;;;;;;5050249;28;20032;-78
2022/03/18 04:14:00;;;;;;;12.13;6.75;;;128.00;2252.80;;;;;;5051610;28;20552;-78
2022/03/18 04:16:26;;;;;;;11.40;7.28;;;128.00;2252.80;;;;;;5048243;28;20033;-77
2022/03/18 04:18:52;;;;;;;12.02;6.60;;;128.00;2252.80;;;;;;5030766;28;20033;-77
2022/03/18 04:21:18;;;;;;;10.13;7.25;;;103.30;2227.20;;;;;;5032278;28;20037;-77
2022/03/18 04:23:43;;;;;;;9.95;6.60;;;128.00;2252.80;;;;;;5031751;28;20044;-77
2022/03/18 04:26:09;;;;;;;13.35;7.05;;;128.00;2252.80;;;;;;5033179;28;20040;-77
2022/03/18 04:28:35;;;;;;;9.90;6.65;;;103.30;2227.20;;;;;;5032813;28;20017;-77
2022/03/18 04:31:01;;;;;;;11.93;6.93;;;103.30;2227.20;;;;;;5036933;28;20029;-77
2022/03/18 04:33:27;;;;;;;13.50;6.60;;;103.30;2227.20;;;;;;5046374;28;20045;-78
2022/03/18 04:35:52;;;;;;;10.65;6.63;;;103.20;2227.20;;;;;;5053292;28;20023;-75
2022/03/18 04:38:18;;;;;;;9.88;6.28;;;103.20;2227.20;;;;;;5052758;28;20025;-74
2022/03/18 04:40:44;;;;;;;13.25;6.65;;;103.20;2227.20;;;;;;5052292;28;20763;-75
2022/03/18 04:43:10;;;;;;;10.85;6.03;;;103.20;2227.20;;;;;;5052535;28;20139;-75
2022/03/18 04:45:36;;;;;;;13.45;6.20;;;103.20;2227.20;;;;;;5053245;28;20116;-75
2022/03/18 04:48:02;;;;;;;12.95;7.55;;;103.20;2227.20;;;;;;5051369;28;20024;-75
2022/03/18 04:50:29;;;;;;;10.50;6.80;;;103.20;2227.20;;;;;;5051250;28;20039;-76
2022/03/18 04:52:56;;;;;;;12.68;6.82;;;103.20;2227.20;;;;;;5039286;28;20474;-76
2022/03/18 04:55:22;;;;;;;12.05;7.25;;;103.20;2227.20;;;;;;5032767;28;20368;-77
2022/03/18 04:57:47;;;;;;;10.50;6.95;;;103.20;2227.20;;;;;;5031771;28;20036;-76
2022/03/18 05:00:14;;;;;;;9.25;7.15;;;103.30;2227.20;;;;;;5032759;28;20029;-77
2022/03/18 05:02:40;;;;;;;10.25;6.78;;;103.30;2227.20;;;;;;5040087;28;20060;-76
2022/03/18 05:05:11;;;;;;;11.75;6.47;;;103.30;2227.20;;;;;;5051213;28;20020;-77
2022/03/18 05:07:40;;;;;;;12.43;8.00;;;103.20;2227.20;;;;;;5052730;28;20025;-76
2022/03/18 05:10:08;;;;;;;13.57;7.47;;;103.20;2227.20;;;;;;5051217;28;20402;-77
2022/03/18 05:12:33;;;;;;;12.48;7.80;;;103.20;2227.20;;;;;;5052267;28;20017;-76
2022/03/18 05:14:59;;;;;;;11.50;7.20;;;103.20;2227.20;;;;;;5051381;28;20029;-76
2022/03/18 05:17:25;;;;;;;13.80;7.55;;;103.30;2227.20;;;;;;5051343;28;20041;-77
2022/03/18 05:19:51;;;;;;;13.55;8.13;;;103.30;2227.20;;;;;;5052534;28;20025;-76
2022/03/18 05:22:17;;;;;;;13.65;7.55;;;103.30;2227.20;;;;;;5034447;28;20045;-77
2022/03/18 05:24:43;;;;;;;14.07;6.70;;;103.30;2227.20;;;;;;5032440;28;20033;-77
2022/03/18 05:27:08;;;;;;;13.18;7.80;;;128.00;2252.80;;;;;;5030869;28;20500;-76
2022/03/18 05:29:34;;;;;;;17.40;7.70;;;128.00;2252.80;;;;;;5031251;28;20033;-76
2022/03/18 05:32:01;;;;;;;15.23;7.40;;;128.10;2252.80;;;;;;5033563;28;20052;-76
2022/03/18 05:34:28;;;;;;;12.50;8.43;;;128.40;2252.80;;;;;;5052331;28;20029;-77
2022/03/18 05:36:54;;;;;;;16.58;8.65;;;128.10;2252.80;;;;;;5050696;28;20020;-76
2022/03/18 05:39:20;;;;;;;13.80;9.00;;;128.20;2252.80;;;;;;5051766;28;20096;-76
2022/03/18 05:41:46;;;;;;;18.52;9.57;;;128.20;2252.80;;;;;;5052118;28;20095;-75
2022/03/18 05:44:12;;;;;;;23.13;14.07;;;128.20;2252.80;;;;;;5050654;28;20080;-76
2022/03/18 05:46:38;;;;;;;29.33;13.90;;;128.20;2252.80;;;;;;5052064;28;20025;-76
2022/03/18 05:49:04;;;;;;;24.17;12.55;;;128.40;2252.80;;;;;;5051697;28;20032;-76
2022/03/18 05:51:30;;;;;;;16.33;9.65;;;128.50;2252.80;;;;;;5051649;28;20030;-75
2022/03/18 05:53:56;;;;;;;18.33;9.88;;;128.50;2252.80;;;;;;5051497;28;20695;-76
2022/03/18 05:59:08;;;;;;;15.35;9.18;;;128.70;2252.80;;;;;;5047429;28;20099;-75
2022/03/18 06:01:40;;;;;;;17.70;9.73;;;128.80;2252.80;;;;;;5031640;28;20132;-76
2022/03/18 06:04:06;;;;;;;14.15;8.50;;;128.90;2252.80;;;;;;5048829;28;20409;-76
2022/03/18 06:06:32;;;;;;;12.88;8.38;;;153.60;2252.80;;;;;;5050168;28;20027;-77
2022/03/18 06:11:48;;;;;;;14.20;9.90;;;153.80;2252.80;;;;;;5052101;28;20040;-75
2022/03/18 06:14:14;;;;;;;14.02;8.85;;;153.80;2252.80;;;;;;5050078;28;20061;-75
2022/03/18 06:16:40;;;;;;;11.10;7.53;;;153.90;2252.80;;;;;;5050317;28;20395;-75
2022/03/18 06:19:06;;;;;;;15.65;8.95;;;153.70;2227.20;;;;;;5049945;28;20108;-76
2022/03/18 06:21:32;;;;;;;12.30;8.65;;;153.70;2227.20;;;;;;5049584;28;20045;-76
2022/03/18 06:23:58;;;;;;;12.80;8.35;;;153.80;2227.20;;;;;;5051245;28;20025;-75
2022/03/18 06:26:23;;;;;;;12.90;8.93;;;153.80;2227.20;;;;;;5051130;28;20063;-75
2022/03/18 06:28:50;;;;;;;10.43;7.20;;;153.80;2252.80;;;;;;5050220;28;20033;-76
2022/03/18 06:31:16;;;;;;;12.27;8.60;;;153.80;2252.80;;;;;;5049360;28;20045;-76
2022/03/18 06:33:44;;;;;;;17.02;9.52;;;153.80;2252.80;;;;;;5050914;28;20096;-76
2022/03/18 06:36:13;;;;;;;13.80;8.15;;;153.80;2252.80;;;;;;5051323;28;20047;-76
2022/03/18 06:38:40;;;;;;;16.85;8.95;;;153.90;2252.80;;;;;;5050539;28;20401;-75
2022/03/18 06:41:06;;;;;;;18.90;10.23;;;154.10;2252.80;;;;;;5029937;28;20045;-76
2022/03/18 06:43:32;;;;;;;14.93;9.52;;;154.20;2252.80;;;;;;5035390;28;20053;-76
2022/03/18 06:45:58;;;;;;;15.68;9.00;;;154.10;2201.60;;;;;;5033922;28;20415;-76
2022/03/18 06:48:24;;;;;;;10.52;7.55;;;154.20;2201.60;;;;;;5035327;28;20060;-76
2022/03/18 06:50:50;;;;;;;14.55;8.90;;;154.40;2201.60;;;;;;5034882;28;20029;-76
2022/03/18 06:53:16;;;;;;;13.05;8.50;;;154.50;2201.60;;;;;;5033830;28;20401;-77
2022/03/18 06:55:41;;;;;;;15.50;9.10;;;179.40;2073.60;;;;;;5066857;28;20044;-77
2022/03/18 06:58:07;;;;;;;12.32;7.93;;;179.30;2048.00;;;;;;5034965;28;20025;-76
2022/03/18 07:00:35;;;;;;;15.65;8.80;;;179.30;2022.40;;;;;;5038109;28;20026;-77
2022/03/18 07:03:01;;;;;;;15.57;8.75;;;179.40;2022.40;;;;;;5044247;28;20616;-76
2022/03/18 07:05:27;;;;;;;16.23;9.52;;;179.40;1996.80;;;;;;5054590;28;20037;-76
2022/03/18 07:07:53;;;;;;;13.73;7.88;;;179.50;1996.80;;;;;;5053387;28;20033;-77
2022/03/18 07:10:19;;;;;;;15.02;8.73;;;179.50;1920.00;;;;;;5053146;28;20033;-78
2022/03/18 07:12:45;;;;;;;14.40;8.13;;;179.70;1894.40;;;;;;5047647;28;20028;-77
2022/03/18 07:15:10;;;;;;;15.00;8.18;;;179.60;1868.80;;;;;;5069311;28;20053;-77
2022/03/18 07:17:55;;;;;;;12.85;8.43;;;179.70;1843.20;;;;;;5034693;28;20100;-78
2022/03/18 07:20:23;;;;;;;15.95;9.52;;;179.90;1792.00;;;;;;5034595;28;20029;-77
2022/03/18 07:23:10;;;;;;;12.77;7.60;;;180.00;1740.80;;;;;;5043634;28;20489;-77
2022/03/18 07:25:44;;;;;;;16.45;10.77;;;205.00;1740.80;;;;;;5050682;28;20104;-77
2022/03/18 07:28:12;;;;;;;23.30;14.60;;;205.30;1664.00;;;;;;5046905;28;20037;-76
2022/03/18 07:30:40;;;;;;;15.48;9.38;;;205.30;1689.60;;;;;;5039763;28;20017;-77
2022/03/18 07:33:06;;;;;;;20.13;11.88;;;205.40;1664.00;;;;;;5041362;28;20045;-77
2022/03/18 07:35:34;;;;;;;27.10;15.27;;;205.50;1612.80;;;;;;5048301;28;20099;-76
2022/03/18 07:38:00;;;;;;;21.50;11.55;;;205.70;1612.80;;;;;;5039963;28;20367;-77
2022/03/18 07:40:26;;;;;;;18.83;11.73;;;230.40;1612.80;;;;;;5050084;28;20065;-77
2022/03/18 07:42:55;;;;;;;31.73;18.00;;;230.40;1587.20;;;;;;5068887;28;20482;-77
2022/03/18 07:45:28;;;;;;;19.05;10.13;;;230.70;1587.20;;;;;;5043960;28;20028;-76
2022/03/18 07:47:56;;;;;;;18.15;9.98;;;230.60;1587.20;;;;;;5036426;28;20030;-76
2022/03/18 07:50:24;;;;;;;12.50;7.72;;;230.70;1561.60;;;;;;5042850;28;20425;-76
2022/03/18 07:53:12;;;;;;;12.05;7.35;;;230.90;1561.60;;;;;;5050349;28;20110;-76
2022/03/18 07:55:40;;;;;;;14.27;8.68;;;231.00;1536.00;;;;;;5054014;28;20029;-76
2022/03/18 07:58:08;;;;;;;15.75;10.32;;;231.00;1536.00;;;;;;5053164;28;20116;-76
2022/03/18 08:00:35;;;;;;;11.75;7.68;;;231.30;1510.40;;;;;;5046957;28;20018;-76
2022/03/18 08:03:01;;;;;;;12.40;6.85;;;256.00;1510.40;;;;;;5042890;28;20021;-77
2022/03/18 08:05:27;;;;;;;17.40;8.63;;;231.20;1484.80;;;;;;5051891;28;20083;-76
2022/03/18 08:07:53;;;;;;;11.23;6.97;;;231.30;1459.20;;;;;;5052141;28;20061;-77
2022/03/18 08:10:19;;;;;;;11.60;7.32;;;231.30;1484.80;;;;;;5051640;28;20039;-77
2022/03/18 08:12:46;;;;;;;13.65;7.80;;;256.10;1459.20;;;;;;5052124;28;20397;-76
2022/03/18 08:15:14;;;;;;;14.75;7.85;;;256.20;1433.60;;;;;;5051280;28;20064;-76
2022/03/18 08:17:41;;;;;;;14.90;8.05;;;256.20;1433.60;;;;;;5053370;28;20025;-76
2022/03/18 08:20:08;;;;;;;12.02;7.05;;;256.50;1433.60;;;;;;5052950;28;20036;-77
2022/03/18 08:22:35;;;;;;;15.90;9.73;;;256.60;1408.00;;;;;;5052228;28;20029;-76
2022/03/18 08:25:02;;;;;;;25.77;12.05;;;281.70;1408.00;;;;;;5052827;28;20064;-76
2022/03/18 08:27:27;;;;;;;18.30;11.32;;;281.60;1433.60;;;;;;5052011;28;20052;-76
2022/03/18 08:29:57;;;;;;;15.63;8.52;;;282.00;1382.40;;;;;;5067278;28;20525;-76
2022/03/18 08:32:26;;;;;;;12.95;6.88;;;281.60;1382.40;;;;;;5043296;28;20132;-77
2022/03/18 08:34:51;;;;;;;17.38;8.75;;;281.80;1382.40;;;;;;5051296;28;20044;-77
2022/03/18 08:37:56;;;;;;;14.50;7.93;;;282.00;1382.40;;;;;;5040398;28;20474;-77
2022/03/18 08:40:04;;;;;;;15.05;9.10;;;281.80;1356.80;;;;;;5040089;28;20108;-77
2022/03/18 08:42:30;;;;;;;11.30;6.72;;;282.00;1356.80;;;;;;5041870;28;20028;-78
2022/03/18 08:44:56;;;;;;;19.42;8.50;;;282.10;1331.20;;;;;;5042753;28;20021;-78
2022/03/18 08:47:23;;;;;;;13.95;8.15;;;282.20;1331.20;;;;;;5037185;28;20033;-77
2022/03/18 08:49:49;;;;;;;16.65;9.70;;;282.30;1331.20;;;;;;5038292;28;20024;-77
2022/03/18 08:52:16;;;;;;;14.18;9.38;;;282.50;1356.80;;;;;;5034225;28;20022;-78
2022/03/18 08:54:42;;;;;;;10.43;7.55;;;307.40;1356.80;;;;;;5031254;28;20502;-77
2022/03/18 08:57:08;;;;;;;17.40;9.70;;;307.70;1331.20;;;;;;5036806;28;20029;-77
2022/03/18 08:59:34;;;;;;;10.60;7.30;;;307.80;1305.60;;;;;;5052531;28;20056;-78
2022/03/18 09:02:00;;;;;;;10.05;7.22;;;307.50;1305.60;;;;;;5051503;28;20489;-77
2022/03/18 09:04:26;;;;;;;11.65;7.55;;;307.40;1305.60;;;;;;5050593;28;20043;-78
2022/03/18 09:06:52;;;;;;;15.82;8.30;;;307.80;1280.00;;;;;;5045408;28;20129;-78
2022/03/18 09:09:17;;;;;;;12.98;8.18;;;308.00;1280.00;;;;;;5036364;28;20393;-78
2022/03/18 09:11:46;;;;;;;12.93;6.72;;;307.70;1280.00;;;;;;5033737;28;20037;-78
2022/03/18 09:14:13;;;;;;;12.82;9.45;;;307.90;1280.00;;;;;;5033347;28;20040;-77
2022/03/18 09:16:38;;;;;;;15.68;8.48;;;308.10;1280.00;;;;;;5048167;28;20366;-77
2022/03/18 09:19:05;;;;;;;12.27;8.23;;;333.00;1305.60;;;;;;5044377;28;20059;-77
2022/03/18 09:21:31;;;;;;;11.23;8.88;;;333.00;1280.00;;;;;;5035159;28;20442;-76
2022/03/18 09:23:58;;;;;;;10.35;8.40;;;333.20;1280.00;;;;;;5032375;28;20063;-76
2022/03/18 09:26:23;;;;;;;11.55;8.25;;;333.50;1254.40;;;;;;5032869;28;20033;-78
2022/03/18 09:28:49;;;;;;;9.70;7.50;;;333.70;1228.80;;;;;;5039952;28;20022;-78
2022/03/18 09:31:15;;;;;;;13.80;8.38;;;358.50;1228.80;;;;;;5040396;28;20022;-78
2022/03/18 09:33:42;;;;;;;13.65;9.20;;;358.60;1203.20;;;;;;5050803;28;20047;-77
2022/03/18 09:36:10;;;;;;;16.40;7.72;;;358.70;1203.20;;;;;;5049688;28;20079;-77
2022/03/18 09:38:37;;;;;;;13.13;7.95;;;358.90;1203.20;;;;;;5034774;28;20060;-78
2022/03/18 09:41:05;;;;;;;11.10;7.28;;;359.20;1177.60;;;;;;5042556;28;20037;-77
2022/03/18 09:43:39;;;;;;;13.25;8.80;;;358.90;1177.60;;;;;;5047102;28;20087;-77
2022/03/18 09:46:10;;;;;;;12.43;8.43;;;359.10;1152.00;;;;;;5037705;28;20030;-77
2022/03/18 09:48:37;;;;;;;11.63;8.40;;;359.10;1152.00;;;;;;5043288;28;20021;-77
2022/03/18 09:51:02;;;;;;;10.70;7.72;;;359.00;1152.00;;;;;;5046559;28;20082;-78
2022/03/18 09:53:28;;;;;;;11.45;7.90;;;384.00;1152.00;;;;;;5042236;28;20029;-78
2022/03/18 09:55:54;;;;;;;10.45;8.02;;;384.00;1152.00;;;;;;5035197;28;20056;-78
2022/03/18 09:58:24;;;;;;;10.23;6.15;;;384.30;1126.40;;;;;;5039397;28;20371;-77
2022/03/18 10:00:50;;;;;;;11.00;8.40;;;384.40;1100.80;;;;;;5037033;28;20025;-77
2022/03/18 10:03:18;;;;;;;9.35;7.60;;;384.20;1126.40;;;;;;5043092;28;20123;-77
2022/03/18 10:05:49;;;;;;;11.45;7.15;;;384.10;1126.40;;;;;;5031545;28;20087;-77
2022/03/18 10:08:20;;;;;;;10.00;7.93;;;384.30;1100.80;;;;;;5048488;28;20079;-77
2022/03/18 10:10:46;;;;;;;12.95;8.20;;;409.60;1100.80;;;;;;5042330;28;20017;-77
2022/03/18 10:13:13;;;;;;;11.05;7.28;;;409.70;1100.80;;;;;;5035448;28;20091;-77
2022/03/18 10:15:39;;;;;;;16.48;8.30;;;384.50;1075.20;;;;;;5034781;28;20056;-77
2022/03/18 10:18:13;;;;;;;11.57;7.35;;;384.10;1100.80;;;;;;5050952;28;20036;-78
2022/03/18 10:20:45;;;;;;;10.52;7.38;;;384.30;1100.80;;;;;;5036786;28;20487;-78
2022/03/18 10:23:24;;;;;;;15.68;9.75;;;409.60;1100.80;;;;;;5039337;28;20041;-78
2022/03/18 10:25:55;;;;;;;11.93;8.40;;;384.80;1075.20;;;;;;5046626;28;20032;-77
2022/03/18 10:28:36;;;;;;;13.20;7.72;;;384.60;1075.20;;;;;;5042934;28;20025;-76
2022/03/18 10:31:21;;;;;;;10.75;6.40;;;384.60;1049.60;;;;;;5047440;28;20075;-77
2022/03/18 10:39:24;;;;;;;12.68;8.75;;;384.30;1075.20;;;;;;5047293;28;20032;-77
2022/03/18 10:41:50;;;;;;;15.30;8.73;;;384.50;1049.60;;;;;;5043540;28;20063;-77
2022/03/18 10:44:17;;;;;;;12.50;9.50;;;384.90;1049.60;;;;;;5045904;28;20018;-77
2022/03/18 10:46:43;;;;;;;15.88;8.38;;;409.60;1075.20;;;;;;5048811;28;20040;-78
2022/03/18 10:49:10;;;;;;;12.90;8.48;;;409.70;1075.20;;;;;;5038904;28;20021;-77
2022/03/18 10:51:37;;;;;;;13.40;8.23;;;409.90;1049.60;;;;;;5038689;28;20033;-77
2022/03/18 10:54:04;;;;;;;16.25;11.25;;;410.10;1049.60;;;;;;5044451;28;20043;-76
2022/03/18 10:56:49;;;;;;;12.05;7.90;;;410.30;1024.00;;;;;;5043159;28;20099;-76
2022/03/18 10:59:17;;;;;;;18.05;8.80;;;435.20;998.40;;;;;;5046065;28;20026;-77
2022/03/18 11:01:46;;;;;;;16.23;10.02;;;410.50;1024.00;;;;;;5044044;28;20028;-76
2022/03/18 11:04:14;;;;;;;19.67;11.93;;;435.80;998.40;;;;;;5037198;28;20029;-76
2022/03/18 11:06:40;;;;;;;16.00;8.82;;;460.80;998.40;;;;;;5049860;28;20096;-79
2022/03/18 11:09:10;;;;;;;10.32;7.80;;;435.80;972.80;;;;;;5042889;28;20541;-76
2022/03/18 11:11:40;;;;;;;13.23;9.48;;;436.10;947.20;;;;;;5045391;28;20041;-75
2022/03/18 11:14:10;;;;;;;15.73;9.98;;;435.90;972.80;;;;;;5046430;28;20096;-76
2022/03/18 11:16:40;;;;;;;12.13;9.45;;;435.70;972.80;;;;;;5077356;28;20026;-78
2022/03/18 11:19:10;;;;;;;12.75;8.65;;;435.50;998.40;;;;;;5052564;28;20025;-77
2022/03/18 11:21:38;;;;;;;14.98;8.45;;;435.60;972.80;;;;;;5075910;28;20501;-76
2022/03/18 11:24:13;;;;;;;17.25;11.48;;;435.70;972.80;;;;;;5041159;28;20067;-77
2022/03/18 11:26:50;;;;;;;16.98;12.85;;;461.00;972.80;;;;;;5043117;28;20095;-77
2022/03/18 11:29:23;;;;;;;11.68;8.25;;;461.20;972.80;;;;;;5042035;28;20116;-77
2022/03/18 11:32:15;;;;;;;13.00;8.65;;;460.80;972.80;;;;;;5043881;28;20049;-78
2022/03/18 11:35:02;;;;;;;31.83;15.73;;;461.40;947.20;;;;;;5045060;28;20100;-78
2022/03/18 11:37:32;;;;;;;19.17;11.85;;;461.30;947.20;;;;;;5063745;28;20375;-78
2022/03/18 11:40:30;;;;;;;22.20;12.98;;;461.40;947.20;;;;;;5039095;28;20118;-78
2022/03/18 11:42:56;;;;;;;15.02;10.43;;;461.20;947.20;;;;;;5024025;28;20072;-77
2022/03/18 11:45:33;;;;;;;13.73;10.05;;;461.50;947.20;;;;;;5019445;28;20026;-76
2022/03/18 11:47:59;;;;;;;14.30;9.25;;;461.40;921.60;;;;;;5020481;28;20932;-75
2022/03/18 11:50:39;;;;;;;11.38;8.52;;;461.40;921.60;;;;;;5029029;28;20037;-76
2022/03/18 11:53:06;;;;;;;13.43;9.85;;;461.70;921.60;;;;;;5025117;28;20124;-76
2022/03/18 11:55:32;;;;;;;15.30;12.15;;;486.80;896.00;;;;;;5024898;28;20083;-75
2022/03/18 11:58:01;;;;;;;22.92;14.73;;;512.00;870.40;;;;;;5022745;28;20042;-76
2022/03/18 12:00:33;;;;;;;23.98;15.23;;;512.10;870.40;;;;;;5002302;28;20081;-76
2022/03/18 12:03:04;;;;;;;20.17;13.27;;;487.30;870.40;;;;;;5009132;28;20076;-76
2022/03/18 12:05:32;;;;;;;16.27;10.95;;;512.10;896.00;;;;;;5011845;28;20033;-76
2022/03/18 12:07:59;;;;;;;16.65;11.23;;;486.60;921.60;;;;;;5018262;28;20401;-77
2022/03/18 12:10:34;;;;;;;17.02;11.60;;;487.20;896.00;;;;;;4993799;28;20026;-76
2022/03/18 12:13:03;;;;;;;19.85;12.52;;;487.00;896.00;;;;;;4995540;28;20589;-76
2022/03/18 12:15:30;;;;;;;20.27;11.23;;;487.00;896.00;;;;;;4992188;28;20033;-76
2022/03/18 12:17:57;;;;;;;17.02;11.13;;;537.60;896.00;;;;;;5021186;28;20042;-77
2022/03/18 12:20:32;;;;;;;24.70;14.45;;;537.70;870.40;;;;;;5047130;28;20025;-76
2022/03/18 12:23:03;;;;;;;20.05;10.52;;;537.80;870.40;;;;;;5040255;28;20128;-76
2022/03/18 12:25:28;;;;;;;14.32;9.70;;;538.10;870.40;;;;;;5054654;28;20028;-77
2022/03/18 12:27:56;;;;;;;19.63;12.88;;;538.20;870.40;;;;;;5042702;28;20395;-77
2022/03/18 12:30:24;;;;;;;11.75;8.90;;;563.70;870.40;;;;;;5037680;28;20559;-77
2022/03/18 12:32:52;;;;;;;13.93;9.93;;;563.70;844.80;;;;;;5045131;28;20558;-76